Time;durP1;ratioP1;P1;durP2;ratioP2;P2;SDS_P1;SDS_P2;PMS_P1;PMS_P2;Temp;Humidity;BMP_temperature;BMP_pressure;BME280_temperature;BME280_humidity;BME280_pressure;Samples;Min_cycle;Max_cycle;Signal;HPM_P1;HPM_P2
2023/03/31 00:02:14;;;;;;;5.93;3.75;;;;;;;;;;4969328;28;20619;-62
2023/03/31 00:04:51;;;;;;;6.82;3.92;;;;;;;;;;4967233;28;20033;-62
2023/03/31 00:07:23;;;;;;;7.32;3.95;;;;;;;;;;4968981;28;20037;-62
2023/03/31 00:09:53;;;;;;;9.45;4.10;;;;;;;;;;4968677;28;20487;-62
2023/03/31 00:12:19;;;;;;;7.53;4.20;;;;;;;;;;4970672;28;20035;-63
2023/03/31 00:14:45;;;;;;;7.63;3.70;;;;;;;;;;4967254;28;20038;-63
2023/03/31 00:17:11;;;;;;;6.32;3.70;;;;;;;;;;4967754;28;20035;-62
2023/03/31 00:19:38;;;;;;;5.40;4.18;;;;;;;;;;4970258;28;20494;-63
2023/03/31 00:22:04;;;;;;;7.53;3.85;;;;;;;;;;4967586;28;20038;-62
2023/03/31 00:24:31;;;;;;;6.90;3.70;;;;;;;;;;4969540;28;20074;-62
2023/03/31 00:26:58;;;;;;;6.90;3.90;;;;;;;;;;4970392;28;20499;-62
2023/03/31 00:29:24;;;;;;;7.03;4.25;;;;;;;;;;4968713;28;20093;-62
2023/03/31 00:31:50;;;;;;;4.30;3.90;;;;;;;;;;4966747;28;20075;-62
2023/03/31 00:34:16;;;;;;;8.00;4.00;;;;;;;;;;4968613;28;20030;-62
2023/03/31 00:36:47;;;;;;;7.82;3.90;;;;;;;;;;4965432;28;20118;-63
2023/03/31 00:39:16;;;;;;;9.52;3.67;;;;;;;;;;4964327;28;20046;-62
2023/03/31 00:41:42;;;;;;;;;;;;;;;;;;4969916;28;20062;-63
2023/03/31 00:44:17;;;;;;;6.97;3.45;;;;;;;;;;4969501;28;19918;-63
2023/03/31 00:47:01;;;;;;;6.63;3.80;;;;;;;;;;4964886;28;20402;-62
2023/03/31 00:49:39;;;;;;;4.63;3.70;;;;;;;;;;4964801;28;20035;-63
2023/03/31 00:52:22;;;;;;;4.38;3.53;;;;;;;;;;4971302;28;20031;-63
2023/03/31 00:54:52;;;;;;;6.65;4.13;;;;;;;;;;4971580;28;20031;-62
2023/03/31 00:57:19;;;;;;;7.32;3.85;;;;;;;;;;4968938;28;20085;-62
2023/03/31 00:59:51;;;;;;;5.05;4.25;;;;;;;;;;4969995;28;20034;-62
2023/03/31 01:02:19;;;;;;;6.30;3.97;;;;;;;;;;4970069;28;20027;-62
2023/03/31 01:04:53;;;;;;;8.23;4.10;;;;;;;;;;4968001;28;20483;-63
2023/03/31 01:07:32;;;;;;;7.60;3.70;;;;;;;;;;4967743;28;20509;-62
2023/03/31 01:10:01;;;;;;;7.93;4.05;;;;;;;;;;4966260;28;20490;-63
2023/03/31 01:12:27;;;;;;;9.20;4.30;;;;;;;;;;4971010;28;20046;-63
2023/03/31 01:14:54;;;;;;;8.65;4.00;;;;;;;;;;4967681;28;20038;-63
2023/03/31 01:17:21;;;;;;;4.45;3.65;;;;;;;;;;4969190;28;20118;-63
2023/03/31 01:20:06;;;;;;;7.45;4.32;;;;;;;;;;4983781;28;20530;-63
2023/03/31 01:22:53;;;;;;;10.60;4.63;;;;;;;;;;4968254;28;20053;-63
2023/03/31 01:25:49;;;;;;;7.75;4.22;;;;;;;;;;4965415;28;20047;-63
2023/03/31 01:28:53;;;;;;;9.10;4.13;;;;;;;;;;4984846;28;20611;-63
2023/03/31 01:31:28;;;;;;;6.38;3.92;;;;;;;;;;4970448;28;20527;-63
2023/03/31 01:34:31;;;;;;;6.07;4.15;;;;;;;;;;4968407;28;20035;-63
2023/03/31 01:37:16;;;;;;;6.65;4.07;;;;;;;;;;4970125;28;20051;-63
2023/03/31 01:40:19;;;;;;;8.45;4.10;;;;;;;;;;4969825;28;20494;-62
2023/03/31 01:42:58;;;;;;;6.13;3.97;;;;;;;;;;4967014;28;20431;-63
2023/03/31 01:45:41;;;;;;;6.07;4.20;;;;;;;;;;4984441;28;20121;-63
2023/03/31 01:48:13;;;;;;;7.95;4.05;;;;;;;;;;4969749;28;20139;-63
2023/03/31 01:51:01;;;;;;;7.30;4.22;;;;;;;;;;4966288;28;20053;-63
2023/03/31 01:54:01;;;;;;;8.60;4.13;;;;;;;;;;4968272;28;20053;-63
2023/03/31 01:56:51;;;;;;;6.15;4.03;;;;;;;;;;4969586;28;20046;-63
2023/03/31 01:59:25;;;;;;;5.65;3.92;;;;;;;;;;4968047;28;20037;-64
2023/03/31 02:02:22;;;;;;;6.45;4.47;;;;;;;;;;4967797;28;20038;-64
2023/03/31 02:04:55;;;;;;;7.25;3.95;;;;;;;;;;4970620;28;20057;-63
2023/03/31 02:07:29;;;;;;;4.93;3.88;;;;;;;;;;4965281;28;20030;-63
2023/03/31 02:10:02;;;;;;;8.00;4.20;;;;;;;;;;4973099;28;20042;-63
2023/03/31 02:12:31;;;;;;;4.45;3.80;;;;;;;;;;4969610;28;20042;-63
2023/03/31 02:14:58;;;;;;;10.15;4.38;;;;;;;;;;4962984;28;20039;-63
2023/03/31 02:17:29;;;;;;;7.32;4.72;;;;;;;;;;4967035;28;20043;-63
2023/03/31 02:20:08;;;;;;;11.20;4.38;;;;;;;;;;4976764;28;20096;-62
2023/03/31 02:22:39;;;;;;;8.27;4.55;;;;;;;;;;4968472;28;20042;-62
2023/03/31 02:25:11;;;;;;;6.30;3.90;;;;;;;;;;4962269;28;20035;-62
2023/03/31 02:27:41;;;;;;;6.28;4.30;;;;;;;;;;4951413;28;20744;-63
2023/03/31 02:30:08;;;;;;;7.07;4.60;;;;;;;;;;4962627;28;20034;-62
2023/03/31 02:32:39;;;;;;;6.80;4.38;;;;;;;;;;4990760;28;20395;-62
2023/03/31 02:35:11;;;;;;;6.60;3.90;;;;;;;;;;4968333;28;20038;-62
2023/03/31 02:37:39;;;;;;;6.82;3.78;;;;;;;;;;4986605;28;20038;-62
2023/03/31 02:40:09;;;;;;;6.07;3.90;;;;;;;;;;4975059;28;20062;-63
2023/03/31 02:42:39;;;;;;;8.43;3.92;;;;;;;;;;4973036;28;20035;-62
2023/03/31 02:45:26;;;;;;;6.45;4.07;;;;;;;;;;4986279;28;20418;-62
2023/03/31 02:47:52;;;;;;;7.38;4.30;;;;;;;;;;4971500;28;20059;-63
2023/03/31 02:50:23;;;;;;;4.47;4.03;;;;;;;;;;4967478;28;20101;-62
2023/03/31 02:53:07;;;;;;;6.25;4.07;;;;;;;;;;4973490;28;20117;-63
2023/03/31 02:56:01;;;;;;;9.38;4.38;;;;;;;;;;4972918;28;20104;-63
2023/03/31 02:58:47;;;;;;;6.07;4.18;;;;;;;;;;4966964;28;20038;-62
2023/03/31 03:01:40;;;;;;;6.93;4.00;;;;;;;;;;4971075;28;20041;-62
2023/03/31 03:04:12;;;;;;;8.18;4.10;;;;;;;;;;4971525;28;20034;-63
2023/03/31 03:06:45;;;;;;;5.25;4.18;;;;;;;;;;4985370;28;20526;-63
2023/03/31 03:09:52;;;;;;;6.30;4.05;;;;;;;;;;4971160;28;20031;-62
2023/03/31 03:12:47;;;;;;;4.30;3.78;;;;;;;;;;4988594;28;20037;-62
2023/03/31 03:15:21;;;;;;;4.20;3.85;;;;;;;;;;4971349;28;20038;-62
2023/03/31 03:17:48;;;;;;;6.38;4.25;;;;;;;;;;4971702;28;20042;-60
2023/03/31 03:20:15;;;;;;;6.93;4.18;;;;;;;;;;4974400;28;20414;-62
2023/03/31 03:22:41;;;;;;;5.38;4.72;;;;;;;;;;4973775;28;20046;-63
2023/03/31 03:25:10;;;;;;;5.75;4.38;;;;;;;;;;4970877;28;20410;-62
2023/03/31 03:27:36;;;;;;;8.23;4.68;;;;;;;;;;4969480;28;20038;-63
2023/03/31 03:30:04;;;;;;;6.63;4.50;;;;;;;;;;4968759;28;20077;-63
2023/03/31 03:32:30;;;;;;;7.07;4.35;;;;;;;;;;4970244;28;20735;-63
2023/03/31 03:34:56;;;;;;;5.10;4.53;;;;;;;;;;4977416;28;20093;-62
2023/03/31 03:37:21;;;;;;;10.93;4.75;;;;;;;;;;4972663;28;20030;-62
2023/03/31 03:39:47;;;;;;;5.32;4.45;;;;;;;;;;4970874;28;20049;-63
2023/03/31 03:42:12;;;;;;;6.55;4.18;;;;;;;;;;4970623;28;20110;-62
2023/03/31 03:44:38;;;;;;;9.25;4.50;;;;;;;;;;4973710;28;20061;-62
2023/03/31 03:47:04;;;;;;;7.70;4.18;;;;;;;;;;4970795;28;20038;-63
2023/03/31 03:49:29;;;;;;;5.50;4.38;;;;;;;;;;4969963;28;20198;-62
2023/03/31 03:51:55;;;;;;;4.65;4.25;;;;;;;;;;4975614;28;20047;-62
2023/03/31 03:54:20;;;;;;;6.45;4.20;;;;;;;;;;4972143;28;20117;-62
2023/03/31 03:56:46;;;;;;;9.43;4.88;;;;;;;;;;4973233;28;20398;-61
2023/03/31 03:59:12;;;;;;;6.47;4.68;;;;;;;;;;4974513;28;20507;-62
2023/03/31 04:01:37;;;;;;;8.02;4.68;;;;;;;;;;4977449;28;20538;-62
2023/03/31 04:04:03;;;;;;;4.85;4.50;;;;;;;;;;4974917;28;20106;-63
2023/03/31 04:06:29;;;;;;;6.57;4.57;;;;;;;;;;4968882;28;20042;-62
2023/03/31 04:08:55;;;;;;;5.85;4.53;;;;;;;;;;4971059;28;20035;-61
2023/03/31 04:11:20;;;;;;;7.75;4.75;;;;;;;;;;4965342;28;20043;-61
2023/03/31 04:13:46;;;;;;;6.53;5.25;;;;;;;;;;4972986;28;20538;-62
2023/03/31 04:16:12;;;;;;;6.93;5.00;;;;;;;;;;4973571;28;20045;-61
2023/03/31 04:18:41;;;;;;;6.88;5.35;;;;;;;;;;4969861;28;20035;-62
2023/03/31 04:21:11;;;;;;;6.30;4.75;;;;;;;;;;4972448;28;20372;-62
2023/03/31 04:23:41;;;;;;;7.13;4.90;;;;;;;;;;4972676;28;20043;-60
2023/03/31 04:26:08;;;;;;;7.53;4.80;;;;;;;;;;4963970;28;21290;-62
2023/03/31 04:28:35;;;;;;;5.90;4.63;;;;;;;;;;4969502;28;20054;-62
2023/03/31 04:31:02;;;;;;;12.55;5.07;;;;;;;;;;4968584;28;20755;-62
2023/03/31 04:33:28;;;;;;;7.47;5.20;;;;;;;;;;4973950;28;20042;-63
2023/03/31 04:35:54;;;;;;;7.65;5.15;;;;;;;;;;4970522;28;20026;-62
2023/03/31 04:38:22;;;;;;;6.47;4.82;;;;;;;;;;4970003;28;20033;-61
2023/03/31 04:40:49;;;;;;;7.57;5.47;;;;;;;;;;4970261;28;20033;-62
2023/03/31 04:43:17;;;;;;;6.32;4.70;;;;;;;;;;4971628;28;20117;-62
2023/03/31 04:45:42;;;;;;;8.20;4.95;;;;;;;;;;4973974;28;20030;-63
2023/03/31 04:48:08;;;;;;;9.20;5.53;;;;;;;;;;4972693;28;20022;-63
2023/03/31 04:50:34;;;;;;;7.68;5.20;;;;;;;;;;4971210;28;20038;-63
2023/03/31 04:53:01;;;;;;;8.88;5.18;;;;;;;;;;4969069;28;20129;-64
2023/03/31 04:55:27;;;;;;;9.48;5.43;;;;;;;;;;4971330;28;20414;-64
2023/03/31 04:57:52;;;;;;;9.15;4.82;;;;;;;;;;4971849;28;20027;-64
2023/03/31 05:00:19;;;;;;;9.30;5.50;;;;;;;;;;4972154;28;20049;-64
2023/03/31 05:02:44;;;;;;;15.57;5.90;;;;;;;;;;4971097;28;20446;-65
2023/03/31 05:05:11;;;;;;;5.47;4.82;;;;;;;;;;4971306;28;20709;-64
2023/03/31 05:07:37;;;;;;;6.68;5.10;;;;;;;;;;4972453;28;20177;-64
2023/03/31 05:10:03;;;;;;;7.97;5.63;;;;;;;;;;4974258;28;20292;-64
2023/03/31 05:12:29;;;;;;;11.00;6.03;;;;;;;;;;4970617;28;20034;-64
2023/03/31 05:14:54;;;;;;;8.23;5.53;;;;;;;;;;4969943;28;20045;-64
2023/03/31 05:17:21;;;;;;;10.38;5.15;;;;;;;;;;4970062;28;20395;-64
2023/03/31 05:19:46;;;;;;;10.73;6.05;;;;;;;;;;4969131;28;20128;-63
2023/03/31 05:22:12;;;;;;;11.48;6.32;;;;;;;;;;4970839;28;20038;-64
2023/03/31 05:24:37;;;;;;;16.08;7.13;;;;;;;;;;4972581;28;20079;-64
2023/03/31 05:27:03;;;;;;;11.77;6.47;;;;;;;;;;4972294;28;20041;-64
2023/03/31 05:29:29;;;;;;;10.68;6.22;;;;;;;;;;4968993;28;20061;-65
2023/03/31 05:31:55;;;;;;;12.27;6.30;;;;;;;;;;4964546;28;20041;-64
2023/03/31 05:34:21;;;;;;;11.05;6.28;;;;;;;;;;4971675;28;20422;-65
2023/03/31 05:36:52;;;;;;;10.25;6.20;;;;;;;;;;4968286;28;20046;-65
2023/03/31 05:39:17;;;;;;;14.95;6.57;;;;;;;;;;4967777;28;20034;-65
2023/03/31 05:41:43;;;;;;;12.32;6.20;;;;;;;;;;4967377;28;20062;-64
2023/03/31 05:44:08;;;;;;;11.40;6.50;;;;;;;;;;4968406;28;20039;-63
2023/03/31 05:46:34;;;;;;;14.30;6.90;;;;;;;;;;4968206;28;20030;-64
2023/03/31 05:49:00;;;;;;;8.50;7.20;;;;;;;;;;4981335;28;20034;-64
2023/03/31 05:51:25;;;;;;;11.98;7.18;;;;;;;;;;4969752;28;20049;-64
2023/03/31 05:53:51;;;;;;;11.88;7.10;;;;;;;;;;4969935;28;20035;-64
2023/03/31 05:56:16;;;;;;;15.45;9.93;;;;;;;;;;4967424;28;20067;-64
2023/03/31 05:58:42;;;;;;;12.40;7.80;;;;;;;;;;4967521;28;20034;-64
2023/03/31 06:01:13;;;;;;;13.30;8.07;;;;;;;;;;4968964;28;20153;-63
2023/03/31 06:03:40;;;;;;;11.70;7.88;;;;;;;;;;4969361;28;20058;-64
2023/03/31 06:06:08;;;;;;;19.58;11.38;;;;;;;;;;4964578;28;20105;-64
2023/03/31 06:08:34;;;;;;;11.13;7.60;;;;;;;;;;4968301;28;20499;-64
2023/03/31 06:11:07;;;;;;;12.75;7.80;;;;;;;;;;4967552;28;20503;-64
2023/03/31 06:13:33;;;;;;;13.05;8.23;;;;;;;;;;4967842;28;20502;-64
2023/03/31 06:16:00;;;;;;;12.93;7.13;;;;;;;;;;4960620;28;20479;-64
2023/03/31 06:18:27;;;;;;;11.55;8.73;;;;;;;;;;4967820;28;20035;-64
2023/03/31 06:20:53;;;;;;;8.52;6.90;;;;;;;;;;4967438;28;20468;-64
2023/03/31 06:23:20;;;;;;;10.65;8.70;;;;;;;;;;4970101;28;20066;-64
2023/03/31 06:25:45;;;;;;;32.95;26.63;;;;;;;;;;4967646;28;20042;-64
2023/03/31 06:28:11;;;;;;;12.02;8.05;;;;;;;;;;4967235;28;20035;-64
2023/03/31 06:30:36;;;;;;;12.18;7.55;;;;;;;;;;4963037;28;20408;-64
2023/03/31 06:33:02;;;;;;;13.52;9.18;;;;;;;;;;4968515;28;20047;-64
2023/03/31 06:35:28;;;;;;;15.32;10.32;;;;;;;;;;4968483;28;20049;-64
2023/03/31 06:37:53;;;;;;;11.82;7.32;;;;;;;;;;4966120;28;20042;-64
2023/03/31 06:40:19;;;;;;;8.88;7.50;;;;;;;;;;4963434;28;20039;-64
2023/03/31 06:42:45;;;;;;;14.73;7.75;;;;;;;;;;4969240;28;20030;-65
2023/03/31 06:45:10;;;;;;;17.83;8.88;;;;;;;;;;4968580;28;20050;-64
2023/03/31 06:47:37;;;;;;;13.50;9.00;;;;;;;;;;4966620;28;20434;-65
2023/03/31 06:50:07;;;;;;;20.13;9.82;;;;;;;;;;4966844;28;20039;-65
2023/03/31 06:52:32;;;;;;;21.23;9.63;;;;;;;;;;4971171;28;20034;-64
2023/03/31 06:54:59;;;;;;;19.83;9.68;;;;;;;;;;4960589;28;20450;-65
2023/03/31 06:57:30;;;;;;;23.23;10.13;;;;;;;;;;4968643;28;20129;-65
2023/03/31 06:59:56;;;;;;;20.58;10.20;;;;;;;;;;4966939;28;20035;-65
2023/03/31 07:02:21;;;;;;;21.77;11.95;;;;;;;;;;4969084;28;20034;-66
2023/03/31 07:04:47;;;;;;;17.60;11.75;;;;;;;;;;4969904;28;20041;-65
2023/03/31 07:07:12;;;;;;;24.83;12.00;;;;;;;;;;4965460;28;20026;-64
2023/03/31 07:09:38;;;;;;;12.70;9.88;;;;;;;;;;4969629;28;20053;-64
2023/03/31 07:12:04;;;;;;;17.98;11.18;;;;;;;;;;4968863;28;20030;-65
2023/03/31 07:14:30;;;;;;;17.05;10.65;;;;;;;;;;4967181;28;20043;-64
2023/03/31 07:16:56;;;;;;;14.93;10.30;;;;;;;;;;4969005;28;20585;-64
2023/03/31 07:19:22;;;;;;;18.17;9.90;;;;;;;;;;4974032;28;20117;-64
2023/03/31 07:21:48;;;;;;;12.90;10.38;;;;;;;;;;4970637;28;20058;-65
2023/03/31 07:24:13;;;;;;;13.48;9.90;;;;;;;;;;4971560;28;20403;-65
2023/03/31 07:26:39;;;;;;;10.82;8.55;;;;;;;;;;4976700;28;20037;-64
2023/03/31 07:29:05;;;;;;;11.95;8.45;;;;;;;;;;4971852;28;20034;-64
2023/03/31 07:31:31;;;;;;;9.52;8.55;;;;;;;;;;4971315;28;20039;-64
2023/03/31 07:33:56;;;;;;;8.48;7.70;;;;;;;;;;4967901;28;20037;-64
2023/03/31 07:36:22;;;;;;;9.13;7.47;;;;;;;;;;4970364;28;20034;-64
2023/03/31 07:38:48;;;;;;;8.73;8.00;;;;;;;;;;4970447;28;20122;-64
2023/03/31 07:41:18;;;;;;;7.32;6.72;;;;;;;;;;4970398;28;20039;-64
2023/03/31 07:43:45;;;;;;;7.43;6.82;;;;;;;;;;4970297;28;20125;-64
2023/03/31 07:46:19;;;;;;;8.00;7.30;;;;;;;;;;4971906;28;20683;-64
2023/03/31 07:48:46;;;;;;;6.70;6.07;;;;;;;;;;4968893;28;20033;-64
2023/03/31 07:51:16;;;;;;;6.47;5.97;;;;;;;;;;4969510;28;20049;-64
2023/03/31 07:53:42;;;;;;;6.72;6.30;;;;;;;;;;4975783;28;20038;-64
2023/03/31 07:56:08;;;;;;;7.03;6.07;;;;;;;;;;4973968;28;20042;-65
2023/03/31 07:58:33;;;;;;;6.80;6.20;;;;;;;;;;4950131;28;20046;-64
2023/03/31 08:00:59;;;;;;;8.02;6.68;;;;;;;;;;4963221;28;20850;-64
2023/03/31 08:03:26;;;;;;;5.85;5.47;;;;;;;;;;4962932;28;20052;-63
2023/03/31 08:05:52;;;;;;;6.40;5.80;;;;;;;;;;4963467;28;20102;-64
2023/03/31 08:08:18;;;;;;;5.90;5.60;;;;;;;;;;4960696;28;20073;-64
2023/03/31 08:10:44;;;;;;;6.35;5.95;;;;;;;;;;4964771;28;20850;-66
2023/03/31 08:13:10;;;;;;;5.90;5.50;;;;;;;;;;4965251;28;20042;-64
2023/03/31 08:15:35;;;;;;;6.10;5.70;;;;;;;;;;4964897;28;20038;-65
2023/03/31 08:18:03;;;;;;;6.63;6.10;;;;;;;;;;4963395;28;20053;-65
2023/03/31 08:20:29;;;;;;;6.88;6.30;;;;;;;;;;4967133;28;20680;-64
2023/03/31 08:22:54;;;;;;;6.75;6.35;;;;;;;;;;4968816;28;20042;-64
2023/03/31 08:25:20;;;;;;;6.85;6.25;;;;;;;;;;4965242;28;20038;-64
2023/03/31 08:27:49;;;;;;;6.65;6.15;;;;;;;;;;4966636;28;20022;-65
2023/03/31 08:30:16;;;;;;;;;;;;;;;;;;4966679;28;20598;-65
2023/03/31 08:32:41;;;;;;;6.38;5.88;;;;;;;;;;4965592;28;19922;-65
2023/03/31 08:35:08;;;;;;;6.95;5.80;;;;;;;;;;4964639;28;20050;-64
2023/03/31 08:37:34;;;;;;;6.18;5.70;;;;;;;;;;4964415;28;20065;-65
2023/03/31 08:40:04;;;;;;;6.18;5.68;;;;;;;;;;4964307;28;20132;-65
2023/03/31 08:42:32;;;;;;;;;;;;;;;;;;4965636;28;20050;-65
2023/03/31 08:45:08;;;;;;;5.80;5.30;;;;;;;;;;4966548;28;19914;-64
2023/03/31 08:47:37;;;;;;;5.53;5.03;;;;;;;;;;4967882;28;20534;-64
2023/03/31 08:50:10;;;;;;;5.20;4.80;;;;;;;;;;4966869;28;20030;-65
2023/03/31 08:52:42;;;;;;;5.30;4.80;;;;;;;;;;4963745;28;20038;-64
2023/03/31 08:55:18;;;;;;;5.43;4.60;;;;;;;;;;4965417;28;20125;-63
2023/03/31 08:57:53;;;;;;;5.03;4.60;;;;;;;;;;4965436;28;20045;-63
2023/03/31 09:00:19;;;;;;;4.90;4.50;;;;;;;;;;4963951;28;20031;-63
2023/03/31 09:02:51;;;;;;;4.57;4.28;;;;;;;;;;4964095;28;20045;-64
2023/03/31 09:05:38;;;;;;;5.30;4.53;;;;;;;;;;4965812;28;20636;-63
2023/03/31 09:08:23;;;;;;;5.45;4.53;;;;;;;;;;4963808;28;20031;-63
2023/03/31 09:10:59;;;;;;;4.25;3.95;;;;;;;;;;4963082;28;20097;-63
2023/03/31 09:13:51;;;;;;;4.32;3.90;;;;;;;;;;4963057;28;20045;-63
2023/03/31 09:16:32;;;;;;;4.20;3.80;;;;;;;;;;4965241;28;20050;-64
2023/03/31 09:19:00;;;;;;;4.10;3.75;;;;;;;;;;4965036;28;20114;-64
2023/03/31 09:21:31;;;;;;;4.32;3.83;;;;;;;;;;4963509;28;20035;-63
2023/03/31 09:24:03;;;;;;;4.00;3.70;;;;;;;;;;4963824;28;20034;-64
2023/03/31 09:26:34;;;;;;;4.53;3.97;;;;;;;;;;4962430;28;20072;-63
2023/03/31 09:29:02;;;;;;;4.95;3.50;;;;;;;;;;4972045;28;20030;-63
2023/03/31 09:31:28;;;;;;;4.18;3.88;;;;;;;;;;4965699;28;20462;-63
2023/03/31 09:34:00;;;;;;;3.97;3.67;;;;;;;;;;4965162;28;20045;-64
2023/03/31 09:36:26;;;;;;;3.78;3.42;;;;;;;;;;4965630;28;20836;-64
2023/03/31 09:38:52;;;;;;;3.97;3.42;;;;;;;;;;4965792;28;20066;-64
2023/03/31 09:41:18;;;;;;;5.18;3.45;;;;;;;;;;4966348;28;20490;-64
2023/03/31 09:43:45;;;;;;;4.20;3.83;;;;;;;;;;4967704;28;20108;-64
2023/03/31 09:46:20;;;;;;;4.43;3.90;;;;;;;;;;4964070;28;20035;-64
2023/03/31 09:48:53;;;;;;;4.55;4.15;;;;;;;;;;4965898;28;20752;-63
2023/03/31 09:51:29;;;;;;;5.28;3.95;;;;;;;;;;4967437;28;20043;-63
2023/03/31 09:54:11;;;;;;;4.78;4.00;;;;;;;;;;4959839;28;20030;-64
2023/03/31 09:56:42;;;;;;;7.05;5.28;;;;;;;;;;4963255;28;20042;-63
2023/03/31 09:59:28;;;;;;;4.90;4.30;;;;;;;;;;4963274;28;20471;-64
2023/03/31 10:01:58;;;;;;;5.63;5.15;;;;;;;;;;4966484;28;20046;-64
2023/03/31 10:04:34;;;;;;;6.32;4.80;;;;;;;;;;4962538;28;20031;-64
2023/03/31 10:07:02;;;;;;;7.18;4.88;;;;;;;;;;4964761;28;20399;-64
2023/03/31 10:09:33;;;;;;;4.50;4.10;;;;;;;;;;4961906;28;20036;-64
2023/03/31 10:12:04;;;;;;;4.90;4.30;;;;;;;;;;4963660;28;20085;-63
2023/03/31 10:14:42;;;;;;;6.15;4.32;;;;;;;;;;4964116;28;20129;-64
2023/03/31 10:17:15;;;;;;;6.72;4.68;;;;;;;;;;4963528;28;20436;-63
2023/03/31 10:19:47;;;;;;;5.28;4.72;;;;;;;;;;4963014;28;20105;-64
2023/03/31 10:22:30;;;;;;;10.27;5.10;;;;;;;;;;4965244;28;20046;-64
2023/03/31 10:25:21;;;;;;;7.65;3.90;;;;;;;;;;4980161;28;20565;-63
2023/03/31 10:27:51;;;;;;;9.82;4.55;;;;;;;;;;4964639;28;20038;-64
2023/03/31 10:30:22;;;;;;;6.82;4.85;;;;;;;;;;4960540;28;20085;-64
2023/03/31 10:32:47;;;;;;;4.90;4.38;;;;;;;;;;4965402;28;20506;-64
2023/03/31 10:35:31;;;;;;;8.18;4.10;;;;;;;;;;4964004;28;20045;-64
2023/03/31 10:38:01;;;;;;;6.53;4.32;;;;;;;;;;4960073;28;20057;-64
2023/03/31 10:40:30;;;;;;;8.73;4.70;;;;;;;;;;4963356;28;20050;-64
2023/03/31 10:43:04;;;;;;;8.23;4.63;;;;;;;;;;4964299;28;20039;-64
2023/03/31 10:45:40;;;;;;;6.70;4.35;;;;;;;;;;4967036;28;20125;-63
2023/03/31 10:48:26;;;;;;;7.82;4.70;;;;;;;;;;4966749;28;20091;-64
2023/03/31 10:50:53;;;;;;;7.05;4.47;;;;;;;;;;4972601;28;20062;-64
2023/03/31 10:53:19;;;;;;;4.82;4.20;;;;;;;;;;4972051;28;20518;-64
2023/03/31 10:56:00;;;;;;;7.20;4.43;;;;;;;;;;4972686;28;20176;-64
2023/03/31 10:58:53;;;;;;;6.82;5.03;;;;;;;;;;4974562;28;20049;-63
2023/03/31 11:01:31;;;;;;;8.77;5.20;;;;;;;;;;4969772;28;20042;-64
2023/03/31 11:04:12;;;;;;;7.95;5.05;;;;;;;;;;4971538;28;20517;-64
2023/03/31 11:07:21;;;;;;;6.10;4.30;;;;;;;;;;4969049;28;20463;-64
2023/03/31 11:10:06;;;;;;;7.03;3.83;;;;;;;;;;4960591;28;20090;-64
2023/03/31 11:12:34;;;;;;;6.78;4.28;;;;;;;;;;4971925;28;20045;-64
2023/03/31 11:15:12;;;;;;;7.15;4.32;;;;;;;;;;4969478;28;20178;-64
2023/03/31 11:18:10;;;;;;;8.60;4.35;;;;;;;;;;4968781;28;20414;-64
2023/03/31 11:20:45;;;;;;;8.98;4.70;;;;;;;;;;4971824;28;20093;-64
2023/03/31 11:23:23;;;;;;;9.45;4.82;;;;;;;;;;4969750;28;20039;-64
2023/03/31 11:25:56;;;;;;;9.85;5.00;;;;;;;;;;4971012;28;20031;-64
2023/03/31 11:28:47;;;;;;;11.30;5.15;;;;;;;;;;4971997;28;20038;-64
2023/03/31 11:31:31;;;;;;;12.02;5.63;;;;;;;;;;4970997;28;20049;-64
2023/03/31 11:34:28;;;;;;;8.13;5.85;;;;;;;;;;4968293;28;20039;-64
2023/03/31 11:37:14;;;;;;;4.95;4.45;;;;;;;;;;4970558;28;20035;-65
2023/03/31 11:39:42;;;;;;;6.88;4.00;;;;;;;;;;4971257;28;20078;-65
2023/03/31 11:42:20;;;;;;;6.20;4.70;;;;;;;;;;4967997;28;20038;-64
2023/03/31 11:44:52;;;;;;;7.05;4.43;;;;;;;;;;4969652;28;20030;-64
2023/03/31 11:47:25;;;;;;;4.35;4.00;;;;;;;;;;4970489;28;20069;-65
2023/03/31 11:49:57;;;;;;;4.65;4.10;;;;;;;;;;4966595;28;20039;-65
2023/03/31 11:52:26;;;;;;;4.30;4.00;;;;;;;;;;4968354;28;20509;-65
2023/03/31 11:55:14;;;;;;;4.10;3.80;;;;;;;;;;4970401;28;20039;-65
2023/03/31 11:58:01;;;;;;;3.80;3.60;;;;;;;;;;4970175;28;20301;-65
2023/03/31 12:00:31;;;;;;;4.68;4.28;;;;;;;;;;4968021;28;20038;-65
2023/03/31 12:03:15;;;;;;;4.40;4.10;;;;;;;;;;4969273;28;20131;-65
2023/03/31 12:05:57;;;;;;;4.70;4.50;;;;;;;;;;4972032;28;20041;-65
2023/03/31 12:08:25;;;;;;;5.43;5.07;;;;;;;;;;4966109;28;20038;-65
2023/03/31 12:11:01;;;;;;;5.07;4.70;;;;;;;;;;4968741;28;20039;-65
2023/03/31 12:13:38;;;;;;;4.88;4.57;;;;;;;;;;4970407;28;20038;-65
2023/03/31 12:16:21;;;;;;;4.80;4.50;;;;;;;;;;4963038;28;20045;-65
2023/03/31 12:19:01;;;;;;;5.15;4.82;;;;;;;;;;4968342;28;20034;-64
2023/03/31 12:21:28;;;;;;;4.50;4.30;;;;;;;;;;4969908;28;20038;-64
2023/03/31 12:23:54;;;;;;;4.78;4.57;;;;;;;;;;4967114;28;20035;-64
2023/03/31 12:26:50;;;;;;;4.80;4.60;;;;;;;;;;4967581;28;20778;-64
2023/03/31 12:29:31;;;;;;;4.30;4.10;;;;;;;;;;4966886;28;20112;-64
2023/03/31 12:32:00;;;;;;;5.10;4.55;;;;;;;;;;4969511;28;20109;-64
2023/03/31 12:34:27;;;;;;;4.78;4.47;;;;;;;;;;4967221;28;20098;-64
2023/03/31 12:37:20;;;;;;;5.00;4.60;;;;;;;;;;4967158;28;20054;-64
2023/03/31 12:39:48;;;;;;;4.30;4.00;;;;;;;;;;4968219;28;20062;-64
2023/03/31 12:42:39;;;;;;;4.50;4.15;;;;;;;;;;4967709;28;20045;-64
2023/03/31 12:45:28;;;;;;;4.80;4.50;;;;;;;;;;4967936;28;20426;-64
2023/03/31 12:48:17;;;;;;;4.60;4.30;;;;;;;;;;4968893;28;20042;-64
2023/03/31 12:51:21;;;;;;;4.70;4.30;;;;;;;;;;4967781;28;20034;-64
2023/03/31 12:53:47;;;;;;;4.45;4.15;;;;;;;;;;4959665;28;20042;-64
2023/03/31 12:56:12;;;;;;;4.40;4.20;;;;;;;;;;4969538;28;20044;-64
2023/03/31 12:58:41;;;;;;;4.30;4.10;;;;;;;;;;4968553;28;20418;-64
2023/03/31 13:01:22;;;;;;;5.13;4.72;;;;;;;;;;4966113;28;20625;-64
2023/03/31 13:03:52;;;;;;;5.07;4.50;;;;;;;;;;4969352;28;20597;-64
2023/03/31 13:06:27;;;;;;;5.65;5.07;;;;;;;;;;4968525;28;20392;-64
2023/03/31 13:09:07;;;;;;;6.65;4.43;;;;;;;;;;4964780;28;20046;-64
2023/03/31 13:11:32;;;;;;;4.80;4.40;;;;;;;;;;4970513;28;20057;-64
2023/03/31 13:14:19;;;;;;;8.07;5.00;;;;;;;;;;4968460;28;20042;-64
2023/03/31 13:16:46;;;;;;;6.20;4.38;;;;;;;;;;4965836;28;20034;-64
2023/03/31 13:19:31;;;;;;;7.03;4.32;;;;;;;;;;4966310;28;20112;-64
2023/03/31 13:21:58;;;;;;;8.02;4.80;;;;;;;;;;4964062;28;20067;-64
2023/03/31 13:24:26;;;;;;;6.25;4.30;;;;;;;;;;4966092;28;20085;-64
2023/03/31 13:26:52;;;;;;;5.30;4.40;;;;;;;;;;4967533;28;20043;-64
2023/03/31 13:29:41;;;;;;;6.80;4.72;;;;;;;;;;4964603;28;20027;-64
2023/03/31 13:32:18;;;;;;;5.93;4.57;;;;;;;;;;4966828;28;20035;-64
2023/03/31 13:34:54;;;;;;;8.30;4.90;;;;;;;;;;4969046;28;20070;-64
2023/03/31 13:37:47;;;;;;;8.95;4.93;;;;;;;;;;4966295;28;20031;-64
2023/03/31 13:40:50;;;;;;;6.35;4.60;;;;;;;;;;4965032;28;20537;-64
2023/03/31 13:43:55;;;;;;;7.65;4.82;;;;;;;;;;4969370;28;20031;-64
2023/03/31 13:46:41;;;;;;;5.35;4.70;;;;;;;;;;4966037;28;20027;-64
2023/03/31 13:49:25;;;;;;;5.70;4.70;;;;;;;;;;4968784;28;20043;-64
2023/03/31 13:51:54;;;;;;;5.07;4.47;;;;;;;;;;4963331;28;20030;-64
2023/03/31 13:54:56;;;;;;;4.80;4.40;;;;;;;;;;4966185;28;20059;-64
2023/03/31 13:57:52;;;;;;;5.75;4.10;;;;;;;;;;4968624;28;20575;-64
2023/03/31 14:00:20;;;;;;;4.70;4.22;;;;;;;;;;4965199;28;20039;-64
2023/03/31 14:03:13;;;;;;;4.45;4.07;;;;;;;;;;4967834;28;20065;-64
2023/03/31 14:05:43;;;;;;;4.38;4.07;;;;;;;;;;4969602;28;20046;-64
2023/03/31 14:08:13;;;;;;;4.40;4.10;;;;;;;;;;4967183;28;20027;-64
2023/03/31 14:10:41;;;;;;;4.95;4.22;;;;;;;;;;4966610;28;21088;-64
2023/03/31 14:13:15;;;;;;;12.77;6.22;;;;;;;;;;4973111;28;20574;-64
2023/03/31 14:16:07;;;;;;;5.35;4.90;;;;;;;;;;4968990;28;20035;-64
2023/03/31 14:18:36;;;;;;;5.20;4.70;;;;;;;;;;4964051;28;20046;-64
2023/03/31 14:21:43;;;;;;;4.65;4.40;;;;;;;;;;4966095;28;20551;-63
2023/03/31 14:24:34;;;;;;;4.68;4.38;;;;;;;;;;4944750;29;20494;-63
2023/03/31 14:27:19;;;;;;;4.60;4.40;;;;;;;;;;4942352;28;20385;-63
2023/03/31 14:30:32;;;;;;;4.40;4.20;;;;;;;;;;4928403;29;20039;-63
2023/03/31 14:33:21;;;;;;;4.45;4.05;;;;;;;;;;4896918;29;20040;-63
2023/03/31 14:35:58;;;;;;;4.47;4.18;;;;;;;;;;4939196;28;20260;-63
2023/03/31 14:38:27;;;;;;;4.32;4.13;;;;;;;;;;4943498;29;20039;-63
2023/03/31 14:40:59;;;;;;;4.32;4.10;;;;;;;;;;4944756;29;20043;-63
2023/03/31 14:43:30;;;;;;;4.70;4.30;;;;;;;;;;4942166;29;20046;-62
2023/03/31 14:46:05;;;;;;;4.50;4.20;;;;;;;;;;4939203;28;20046;-63
2023/03/31 14:48:34;;;;;;;4.90;4.60;;;;;;;;;;4944473;29;20495;-63
2023/03/31 14:51:02;;;;;;;4.70;4.40;;;;;;;;;;4942974;28;20066;-62
2023/03/31 14:53:28;;;;;;;4.40;4.20;;;;;;;;;;4944519;29;20081;-62
2023/03/31 14:56:03;;;;;;;4.25;3.90;;;;;;;;;;4944712;29;20160;-63
2023/03/31 14:58:36;;;;;;;4.43;4.03;;;;;;;;;;4943865;29;20043;-64
2023/03/31 15:01:05;;;;;;;4.57;4.28;;;;;;;;;;4964602;28;20058;-63
2023/03/31 15:03:32;;;;;;;4.85;4.32;;;;;;;;;;4968171;28;20034;-64
2023/03/31 15:06:01;;;;;;;4.70;4.35;;;;;;;;;;4965274;28;20037;-64
2023/03/31 15:08:29;;;;;;;5.17;4.77;;;;;;;;;;4968651;28;20038;-63
2023/03/31 15:10:58;;;;;;;4.80;4.50;;;;;;;;;;4969331;28;20313;-64
2023/03/31 15:13:35;;;;;;;4.95;4.43;;;;;;;;;;4969483;28;20042;-64
2023/03/31 15:16:28;;;;;;;5.00;4.50;;;;;;;;;;4965425;28;20039;-63